»·PEaware :: N334CS KOAK-KEUG

N334CS :: KOAK-KEUG

FLIGHT INFORMATION

Flight Status: Arrived
Operator: Privately registered:
United States
More flights under this callsign
Pilot: Anonymous 18083 (18083)
Aircraft: Unknown
(SF50)
More flights by this aircraft type
Origin: KOAK Metro Oakland Intl
United States
Destination: KEUG Mahlon Sweet
United States
More flights between these airports :: More routes between these airports
Route: +OAK3 OAK GRTFL EUG
File this flight plan on PilotEdge
Remarks: Sample flight plan
Altitude:
(Current/Filed)
24,000ft
Speed:
(Current/Filed)
150kts
Departed: 11-Jan-19 02:48 PM
Arrived: 11-Jan-19 04:14 PM
Distance/Time
Traveled:
387nm/1:26
Distance/Time
To Go:
Arrived

Flight Plot

Page will automatically refresh every two minutes.

Flight plan parsing failed; only flown route is shown


Map Options




Map Legend


Flown Route
Filed Route
Departure Airport
Arrival Airport
Navaid (VOR, NDB)
Fix

Horizontal Profiles

Position Reports

Time Latitude Longitude Heading Altitude Ground
Speed
11-Jan-19 14:26 37.730419 -122.213251 307 8ft 0kts
11-Jan-19 14:27 37.730419 -122.213251 307 8ft 0kts
11-Jan-19 14:28 37.730419 -122.213251 307 8ft 0kts
11-Jan-19 14:29 37.730419 -122.213251 307 8ft 0kts
11-Jan-19 14:30 37.730419 -122.213251 307 8ft 0kts
11-Jan-19 14:31 37.730419 -122.213251 307 8ft 0kts
11-Jan-19 14:32 37.730419 -122.213251 307 8ft 0kts
11-Jan-19 14:33 37.730419 -122.213251 307 8ft 0kts
11-Jan-19 14:34 37.730419 -122.213251 307 8ft 0kts
11-Jan-19 14:35 37.730419 -122.213251 307 8ft 0kts
11-Jan-19 14:36 37.730419 -122.213251 307 8ft 0kts
11-Jan-19 14:38 37.730419 -122.213251 307 8ft 0kts
11-Jan-19 14:39 37.730431 -122.213279 290 8ft 0kts
11-Jan-19 14:40 37.729795 -122.214028 193 8ft 5kts
11-Jan-19 14:41 37.728802 -122.213768 308 8ft 0kts
11-Jan-19 14:42 37.729035 -122.214512 296 8ft 4kts
11-Jan-19 14:43 37.729779 -122.216827 292 8ft 9kts
11-Jan-19 14:44 37.730083 -122.217702 293 8ft 1kts
11-Jan-19 14:45 37.730711 -122.219682 293 8ft 10kts
11-Jan-19 14:46 37.731176 -122.221509 238 8ft 0kts
11-Jan-19 14:47 37.730405 -122.221905 144 8ft 4kts
11-Jan-19 14:48 37.723910 -122.203967 114 600ft 97kts
11-Jan-19 14:49 37.700154 -122.193896 234 2101ft 124kts
11-Jan-19 14:50 37.703449 -122.238804 283 3697ft 139kts
11-Jan-19 14:51 37.711684 -122.291393 283 5228ft 167kts
11-Jan-19 14:52 37.721426 -122.350205 283 6736ft 170kts
11-Jan-19 14:53 37.731829 -122.406916 282 8229ft 159kts
11-Jan-19 14:54 37.714888 -122.440211 197 9527ft 112kts
11-Jan-19 14:55 37.711036 -122.474868 333 10567ft 147kts
11-Jan-19 14:56 37.743378 -122.455028 57 11170ft 151kts
11-Jan-19 14:57 37.784494 -122.421396 23 11743ft 209kts
11-Jan-19 14:57 37.834824 -122.404459 20 12206ft 237kts
11-Jan-19 14:58 37.901617 -122.382278 20 12752ft 257kts
11-Jan-19 14:59 37.972388 -122.358722 20 13294ft 267kts
11-Jan-19 15:01 38.057304 -122.330394 20 13926ft 273kts
11-Jan-19 15:02 38.131002 -122.305747 20 14444ft 275kts
11-Jan-19 15:02 38.191340 -122.285542 20 15170ft 263kts
11-Jan-19 15:03 38.263100 -122.261430 20 16165ft 274kts
11-Jan-19 15:04 38.337856 -122.236273 19 17163ft 281kts
11-Jan-19 15:05 38.417468 -122.241714 354 18161ft 290kts
11-Jan-19 15:06 38.497592 -122.254152 354 19160ft 291kts
11-Jan-19 15:07 38.577957 -122.266724 354 20166ft 290kts
11-Jan-19 15:08 38.657904 -122.279259 354 21174ft 291kts
11-Jan-19 15:09 38.737802 -122.291816 354 22190ft 287kts
11-Jan-19 15:10 38.816278 -122.304176 354 23208ft 282kts
11-Jan-19 15:11 38.893675 -122.316389 354 24007ft 287kts
11-Jan-19 15:12 38.977342 -122.329622 354 24017ft 317kts
11-Jan-19 15:13 39.067400 -122.343910 354 24019ft 334kts
11-Jan-19 15:14 39.161122 -122.358815 353 24005ft 342kts
11-Jan-19 15:15 39.256004 -122.373944 353 24014ft 345kts
11-Jan-19 15:16 39.351256 -122.389174 353 24038ft 347kts
11-Jan-19 15:17 39.447339 -122.404577 353 24044ft 348kts
11-Jan-19 15:18 39.543293 -122.420007 353 24040ft 349kts
11-Jan-19 15:19 39.639979 -122.435595 353 24043ft 350kts
11-Jan-19 15:20 39.736527 -122.451206 353 24049ft 350kts
11-Jan-19 15:21 39.832960 -122.466839 353 24050ft 351kts
11-Jan-19 15:22 39.929902 -122.482603 353 24051ft 351kts
11-Jan-19 15:23 40.028048 -122.498607 353 24053ft 360kts
11-Jan-19 15:24 40.127828 -122.514922 353 24043ft 364kts
11-Jan-19 15:25 40.228276 -122.531401 353 24040ft 365kts
11-Jan-19 15:26 40.328990 -122.547968 353 24036ft 366kts
11-Jan-19 15:27 40.429744 -122.564596 353 24036ft 366kts
11-Jan-19 15:28 40.530992 -122.581352 353 24037ft 366kts
11-Jan-19 15:29 40.631783 -122.598087 353 24039ft 367kts
11-Jan-19 15:30 40.732957 -122.614934 353 24040ft 367kts
11-Jan-19 15:31 40.834148 -122.631839 353 24041ft 367kts
11-Jan-19 15:32 40.935516 -122.648823 353 24042ft 368kts
11-Jan-19 15:33 41.036763 -122.665834 352 24027ft 368kts
11-Jan-19 15:34 41.138406 -122.682972 352 23996ft 367kts
11-Jan-19 15:35 41.238866 -122.699964 352 23996ft 364kts
11-Jan-19 15:36 41.338943 -122.716942 352 23997ft 363kts
11-Jan-19 15:37 41.439008 -122.733969 352 23998ft 363kts
11-Jan-19 15:38 41.539152 -122.751062 352 24000ft 363kts
11-Jan-19 15:39 41.639092 -122.768178 352 24001ft 363kts
11-Jan-19 15:40 41.739115 -122.785356 352 24002ft 364kts
11-Jan-19 15:41 41.841323 -122.802969 352 23055ft 375kts
11-Jan-19 15:42 41.944101 -122.820737 352 21867ft 368kts
11-Jan-19 15:43 42.042249 -122.837758 352 20391ft 349kts
11-Jan-19 15:44 42.137455 -122.854319 352 18897ft 342kts
11-Jan-19 15:45 42.230897 -122.870624 352 17375ft 337kts
11-Jan-19 15:46 42.323376 -122.886807 352 15858ft 334kts
11-Jan-19 15:47 42.414778 -122.902849 352 14352ft 331kts
11-Jan-19 15:48 42.505506 -122.918820 352 12924ft 325kts
11-Jan-19 15:49 42.593982 -122.934443 352 11426ft 318kts
11-Jan-19 15:50 42.680233 -122.949714 353 10012ft 307kts
11-Jan-19 15:51 42.764998 -122.964762 353 9988ft 310kts
11-Jan-19 15:52 42.847393 -122.979442 354 9981ft 287kts
11-Jan-19 15:53 42.924762 -122.993243 355 9991ft 276kts
11-Jan-19 15:54 43.000061 -123.006710 355 9998ft 271kts
11-Jan-19 15:55 43.073907 -123.019906 348 10003ft 267kts
11-Jan-19 15:56 43.148029 -123.033286 348 9997ft 269kts
11-Jan-19 15:57 43.222433 -123.046698 348 9998ft 270kts
11-Jan-19 15:58 43.296763 -123.060123 347 9998ft 270kts
11-Jan-19 15:59 43.371448 -123.073648 347 9989ft 271kts
11-Jan-19 16:00 43.447385 -123.087656 356 9368ft 282kts
11-Jan-19 16:01 43.520779 -123.100976 357 7862ft 254kts
11-Jan-19 16:02 43.588264 -123.113275 356 6362ft 238kts
11-Jan-19 16:03 43.652136 -123.124927 356 5017ft 221kts
11-Jan-19 16:04 43.710387 -123.135522 355 4438ft 208kts
11-Jan-19 16:05 43.765572 -123.145674 355 3987ft 192kts
11-Jan-19 16:06 43.822559 -123.156143 354 3991ft 215kts
11-Jan-19 16:07 43.882380 -123.168774 350 3982ft 217kts
11-Jan-19 16:08 43.941306 -123.184513 2 4073ft 207kts
11-Jan-19 16:09 43.998354 -123.188651 349 3262ft 204kts
11-Jan-19 16:10 44.048888 -123.206498 347 2644ft 140kts
11-Jan-19 16:11 44.083442 -123.217969 1 1481ft 126kts
11-Jan-19 16:12 44.109593 -123.218920 1 544ft 82kts
11-Jan-19 16:13 44.120931 -123.217517 89 365ft 13kts
11-Jan-19 16:14 44.120988 -123.214218 89 367ft 6kts
11-Jan-19 16:15 44.121912 -123.212264 33 365ft 0kts

Navigation Log

Ident Type
Flight plan parsing failed, navigation log unavailable